createdAt,value
2016-11-23T00:58:53.940Z,11.15
2016-11-23T01:04:33.354Z,11.16
2016-11-23T04:55:29.761Z,8.96
2016-11-23T05:21:24.091Z,8.64
2016-11-23T05:26:35.788Z,8.33
2016-11-23T05:28:48.671Z,8.39
2016-11-23T05:32:27.975Z,8.55
2016-11-23T05:32:49.720Z,8.60
2016-11-23T05:33:14.347Z,8.64
2016-11-23T05:34:02.599Z,8.53
2016-11-23T05:34:28.363Z,8.48
2016-11-23T05:35:19.225Z,8.42
2016-11-23T05:35:43.902Z,8.51
2016-11-23T05:36:05.633Z,8.59
2016-11-23T05:36:27.434Z,8.65
2016-11-23T05:36:53.925Z,8.67
2016-11-23T05:37:15.672Z,8.68
2016-11-23T05:38:15.457Z,8.49
2016-11-23T05:38:41.848Z,8.42
2016-11-23T05:39:06.145Z,8.36
2016-11-23T05:39:28.863Z,8.30
2016-11-23T05:39:51.599Z,8.24
2016-11-23T05:40:13.369Z,8.23
2016-11-23T05:40:35.151Z,8.31
2016-11-23T05:40:57.876Z,8.33
2016-11-23T05:41:24.382Z,8.28
2016-11-23T05:42:13.621Z,8.31
2016-11-23T05:42:38.218Z,8.26
2016-11-23T05:42:59.967Z,8.23
2016-11-23T05:43:21.709Z,8.22
2016-11-23T05:43:43.476Z,8.21
2016-11-23T05:44:05.224Z,8.22
2016-11-23T05:44:26.966Z,8.24
2016-11-23T05:44:53.497Z,8.25
2016-11-23T05:45:15.237Z,8.25
2016-11-23T05:45:36.969Z,8.23
2016-11-23T05:45:58.702Z,8.24
2016-11-23T05:46:23.065Z,8.27
2016-11-23T05:46:55.361Z,8.26
2016-11-23T05:47:19.771Z,8.27
2016-11-23T05:47:41.514Z,8.24
2016-11-23T05:48:29.759Z,8.17
2016-11-23T05:48:52.500Z,8.14
2016-11-23T05:49:14.239Z,8.10
2016-11-23T05:49:41.740Z,8.03
2016-11-23T05:50:08.245Z,8.03
2016-11-23T05:50:29.976Z,8.05
2016-11-23T05:50:53.716Z,8.06
2016-11-23T05:51:22.733Z,8.08
2016-11-23T05:51:44.488Z,8.07
2016-11-23T05:52:11.021Z,8.02
2016-11-23T05:52:37.535Z,8.09
2016-11-23T05:53:06.612Z,8.25
2016-11-23T05:53:42.660Z,8.34
2016-11-23T05:54:11.657Z,8.46
2016-11-23T05:54:36.213Z,8.46
2016-11-23T05:54:57.952Z,8.52
2016-11-23T05:55:23.485Z,8.59
2016-11-23T05:55:49.986Z,8.51
2016-11-23T05:56:11.724Z,8.42
2016-11-23T05:56:38.235Z,8.36
2016-11-23T05:57:03.748Z,8.31
2016-11-23T05:57:25.510Z,8.30
2016-11-23T05:57:49.949Z,8.28
2016-11-23T05:58:21.222Z,8.29
2016-11-23T05:58:43.997Z,8.28
2016-11-23T05:59:10.505Z,8.30
2016-11-23T05:59:33.233Z,8.32
2016-11-23T06:00:00.754Z,8.36
2016-11-23T06:00:29.758Z,8.37
2016-11-23T06:00:51.500Z,8.34
2016-11-23T06:01:18.228Z,8.34
2016-11-23T06:01:44.738Z,8.33
2016-11-23T06:02:06.511Z,8.33
2016-11-23T06:02:28.275Z,8.33
2016-11-23T06:02:50.045Z,8.36
2016-11-23T06:03:21.929Z,8.36
2016-11-23T06:03:57.960Z,8.33
2016-11-23T06:04:26.128Z,8.26
2016-11-23T06:05:00.459Z,8.25
2016-11-23T06:05:23.217Z,8.30
2016-11-23T06:05:44.932Z,8.31
2016-11-23T06:06:10.553Z,8.29
2016-11-23T06:06:32.300Z,8.33
2016-11-23T06:06:54.024Z,8.31
2016-11-23T06:07:52.893Z,8.27
2016-11-23T06:08:52.614Z,8.29
2016-11-23T06:09:19.116Z,8.31
2016-11-23T06:10:11.958Z,8.27
2016-11-23T06:10:38.627Z,8.30
2016-11-23T06:11:05.162Z,8.33
2016-11-23T06:11:26.925Z,8.34
2016-11-23T06:11:49.654Z,8.33
2016-11-23T06:12:40.847Z,8.35
2016-11-23T06:13:03.583Z,8.36
2016-11-23T06:13:25.450Z,8.37
2016-11-23T06:14:19.466Z,8.45
2016-11-23T06:15:12.531Z,8.44
2016-11-23T06:15:34.351Z,8.45
2016-11-23T06:16:27.358Z,8.49
2016-11-23T06:17:16.601Z,8.52
2016-11-23T06:17:38.332Z,8.54
2016-11-23T06:18:00.059Z,8.55
2016-11-23T06:19:00.694Z,8.55
2016-11-23T06:19:27.265Z,8.57
2016-11-23T06:19:51.806Z,8.56
2016-11-23T06:20:19.298Z,8.52
2016-11-23T06:21:16.891Z,8.57
2016-11-23T06:22:10.728Z,8.57
2016-11-23T06:22:33.444Z,8.57
2016-11-23T06:23:26.447Z,8.55
2016-11-23T06:23:50.996Z,8.60
2016-11-23T06:24:17.494Z,8.67
2016-11-23T06:24:43.811Z,8.71
2016-11-23T06:25:36.825Z,8.74
2016-11-23T06:26:03.350Z,8.77
2016-11-23T06:26:25.101Z,8.76
2016-11-23T06:26:46.840Z,8.76
2016-11-23T06:27:08.577Z,8.78
2016-11-23T06:27:30.311Z,8.78
2016-11-23T06:27:52.065Z,8.80
2016-11-23T06:28:25.917Z,8.81
2016-11-23T06:28:47.655Z,8.85
2016-11-23T06:29:19.104Z,8.80
2016-11-23T06:29:40.914Z,8.79
2016-11-23T06:30:02.636Z,8.74
2016-11-23T06:30:24.360Z,8.71
2016-11-23T06:30:55.633Z,8.70
2016-11-23T06:31:18.361Z,8.73
2016-11-23T06:31:45.865Z,8.72
2016-11-23T06:32:17.531Z,8.80
2016-11-23T06:32:43.907Z,8.82
2016-11-23T06:33:05.722Z,8.87
2016-11-23T06:33:56.862Z,8.83
2016-11-23T06:34:18.602Z,8.86
2016-11-23T06:34:40.331Z,8.90
2016-11-23T06:35:33.347Z,8.88
2016-11-23T06:35:55.093Z,8.88
2016-11-23T06:37:14.733Z,8.84
2016-11-23T06:37:36.476Z,8.86
2016-11-23T06:38:07.626Z,8.86
2016-11-23T06:38:29.406Z,8.90
2016-11-23T06:38:51.146Z,8.90
2016-11-23T06:39:13.876Z,8.90
2016-11-23T06:39:42.437Z,8.84
2016-11-23T06:40:08.151Z,8.88
2016-11-23T06:40:29.883Z,8.94
2016-11-23T06:40:51.712Z,8.98
2016-11-23T06:41:47.559Z,9.09
2016-11-23T06:42:09.309Z,9.07
2016-11-23T06:42:32.051Z,9.01
2016-11-23T06:43:27.897Z,9.02
2016-11-23T06:44:48.443Z,9.04
2016-11-23T06:45:10.179Z,9.09
2016-11-23T06:45:31.911Z,9.10
2016-11-23T06:46:01.046Z,9.03
2016-11-23T06:46:52.184Z,9.06
2016-11-23T06:47:48.929Z,9.07
2016-11-23T06:48:46.563Z,9.15
2016-11-23T06:49:14.064Z,9.21
2016-11-23T06:50:02.339Z,9.21
2016-11-23T06:50:53.286Z,9.25
2016-11-23T06:51:15.036Z,9.28
2016-11-23T06:51:41.361Z,9.26
2016-11-23T06:52:13.630Z,9.29
2016-11-23T06:52:35.458Z,9.28
2016-11-23T06:53:04.558Z,9.30
2016-11-23T06:54:28.646Z,9.24
2016-11-23T06:54:51.492Z,9.25
2016-11-23T06:55:50.441Z,9.22
2016-11-23T06:56:14.188Z,9.22
2016-11-23T06:56:40.691Z,9.23
2016-11-23T06:57:07.015Z,9.27
2016-11-23T06:57:34.506Z,9.27
2016-11-23T06:57:57.235Z,9.25
2016-11-23T06:58:19.965Z,9.27
2016-11-23T07:00:00.308Z,9.22
2016-11-23T07:00:33.359Z,9.18
2016-11-23T07:01:00.879Z,9.12
2016-11-23T07:01:22.631Z,9.08
2016-11-23T07:01:46.867Z,9.13
2016-11-23T07:02:08.614Z,9.14
2016-11-23T07:02:30.352Z,9.15
2016-11-23T07:02:56.855Z,9.12
2016-11-23T07:03:19.588Z,9.12
2016-11-23T07:03:41.326Z,9.12
2016-11-23T07:04:59.740Z,9.12
2016-11-23T07:05:31.992Z,9.11
2016-11-23T07:06:30.583Z,9.07
2016-11-23T07:06:55.080Z,9.06
2016-11-23T07:07:18.025Z,9.02
2016-11-23T07:07:49.774Z,8.99
2016-11-23T07:08:19.069Z,8.95
2016-11-23T07:08:49.462Z,8.96
2016-11-23T07:09:11.207Z,8.98
2016-11-23T07:09:38.749Z,8.98
2016-11-23T07:10:08.001Z,9.04
2016-11-23T07:10:33.322Z,9.10
2016-11-23T07:10:56.117Z,9.12
2016-11-23T07:11:53.885Z,8.99
2016-11-23T07:12:46.893Z,8.95
2016-11-23T07:13:08.838Z,9.00
2016-11-23T07:13:32.439Z,9.01
2016-11-23T07:13:54.175Z,9.00
2016-11-23T07:14:15.949Z,8.96
2016-11-23T07:14:37.683Z,8.93
2016-11-23T07:15:43.121Z,9.12
2016-11-23T07:16:16.756Z,9.14
2016-11-23T07:16:41.242Z,9.17
2016-11-23T07:17:16.135Z,9.23
2016-11-23T07:17:43.625Z,9.15
2016-11-23T07:18:15.890Z,9.08
2016-11-23T07:19:24.864Z,8.90
2016-11-23T07:20:19.072Z,8.84
2016-11-23T07:20:43.871Z,8.80
2016-11-23T07:21:05.646Z,8.80
2016-11-23T07:22:03.414Z,8.91
2016-11-23T07:23:36.948Z,8.90
2016-11-23T07:24:03.466Z,8.99
2016-11-23T07:25:02.370Z,9.04
2016-11-23T07:25:27.891Z,9.00
2016-11-23T07:26:01.812Z,8.95
2016-11-23T07:26:23.572Z,9.02
2016-11-23T07:26:51.078Z,9.12
2016-11-23T07:27:55.773Z,9.22
2016-11-23T07:28:17.519Z,9.25
2016-11-23T07:28:39.244Z,9.11
2016-11-23T07:29:05.767Z,9.05
2016-11-23T07:30:05.007Z,9.10
2016-11-23T07:30:26.736Z,9.06
2016-11-23T07:30:53.253Z,9.08
2016-11-23T07:31:15.981Z,9.09
2016-11-23T07:31:43.482Z,9.08
2016-11-23T07:32:36.469Z,9.05
2016-11-23T07:33:24.700Z,8.98
2016-11-23T07:34:56.719Z,8.96
2016-11-23T07:35:23.234Z,8.94
2016-11-23T07:35:55.506Z,8.95
2016-11-23T07:36:26.776Z,8.97
2016-11-23T07:36:53.289Z,8.93
2016-11-23T07:37:19.789Z,8.96
2016-11-23T07:37:44.220Z,8.95
2016-11-23T07:38:11.026Z,8.93
2016-11-23T07:39:10.796Z,9.04
2016-11-23T07:40:08.698Z,9.06
2016-11-23T07:40:30.676Z,9.06
2016-11-23T07:41:38.481Z,9.08
2016-11-23T07:42:27.767Z,9.12
2016-11-23T07:43:51.868Z,9.11
2016-11-23T07:44:23.143Z,9.16
2016-11-23T07:44:46.094Z,9.24
2016-11-23T07:45:09.838Z,9.20
2016-11-23T07:46:02.864Z,9.18
2016-11-23T07:46:24.645Z,9.17
2016-11-23T07:47:21.344Z,9.12
2016-11-23T07:47:57.382Z,9.12
2016-11-23T07:49:01.025Z,9.12
2016-11-23T07:49:25.386Z,9.09
2016-11-23T07:49:56.712Z,9.10
2016-11-23T07:50:24.595Z,9.10
2016-11-23T07:50:47.329Z,9.12
2016-11-23T07:51:14.269Z,9.14
2016-11-23T07:51:37.014Z,9.11
2016-11-23T07:52:13.038Z,9.12
2016-11-23T07:53:12.579Z,9.14
2016-11-23T07:53:39.065Z,9.10
2016-11-23T07:54:03.428Z,9.10
2016-11-23T07:54:25.262Z,9.07
2016-11-23T07:54:49.571Z,9.05
2016-11-23T07:55:11.432Z,9.03
2016-11-23T07:55:33.236Z,9.03
2016-11-23T07:55:59.763Z,9.05
2016-11-23T07:56:21.618Z,9.08
2016-11-23T07:56:47.250Z,9.13
2016-11-23T07:57:18.510Z,9.11
2016-11-23T07:57:44.814Z,9.12
2016-11-23T07:58:16.099Z,9.10
2016-11-23T07:59:11.593Z,9.05
2016-11-23T08:00:27.531Z,8.98
2016-11-23T08:01:18.382Z,9.01
2016-11-23T08:01:50.276Z,9.01
2016-11-23T08:02:14.543Z,9.05
2016-11-23T08:02:41.045Z,9.08
2016-11-23T08:03:39.701Z,9.13
2016-11-23T08:04:08.534Z,9.14
2016-11-23T08:04:35.039Z,9.15
2016-11-23T08:06:13.564Z,8.93
2016-11-23T08:06:42.916Z,9.03
2016-11-23T08:07:04.748Z,8.99
2016-11-23T08:08:07.494Z,9.16
2016-11-23T08:08:36.859Z,9.07
2016-11-23T08:09:01.187Z,9.03
2016-11-23T08:09:27.738Z,9.02
2016-11-23T08:09:55.236Z,9.02
2016-11-23T08:10:43.481Z,9.02
2016-11-23T08:11:09.802Z,9.08
2016-11-23T08:11:32.537Z,9.05
2016-11-23T08:12:02.651Z,8.99
2016-11-23T08:12:28.003Z,9.01
2016-11-23T08:12:52.333Z,9.09
2016-11-23T08:13:18.851Z,9.12
2016-11-23T08:13:46.361Z,9.21
2016-11-23T08:14:13.694Z,9.28
2016-11-23T08:14:40.193Z,9.34
2016-11-23T08:15:02.932Z,9.39
2016-11-23T08:15:24.669Z,9.33
2016-11-23T08:16:23.176Z,9.25
2016-11-23T08:16:44.922Z,9.32
2016-11-23T08:17:09.278Z,9.31
2016-11-23T08:18:08.591Z,9.34
2016-11-23T08:18:35.084Z,9.38
2016-11-23T08:19:01.575Z,9.48
2016-11-23T08:19:50.774Z,9.52
2016-11-23T08:20:13.514Z,9.57
2016-11-23T08:21:35.029Z,9.57
2016-11-23T08:21:56.771Z,9.59
2016-11-23T08:22:23.287Z,9.59
2016-11-23T08:22:48.940Z,9.62
2016-11-23T08:23:11.696Z,9.60
2016-11-23T08:23:38.213Z,9.61
2016-11-23T08:24:00.954Z,9.61
2016-11-23T08:24:51.646Z,9.59
2016-11-23T08:25:13.382Z,9.57
2016-11-23T08:25:39.878Z,9.56
2016-11-23T08:26:01.619Z,9.51
2016-11-23T08:26:28.120Z,9.56
2016-11-23T08:26:57.391Z,9.60
2016-11-23T08:27:19.180Z,9.65
2016-11-23T08:27:53.142Z,9.71
2016-11-23T08:28:18.922Z,9.64
2016-11-23T08:28:40.669Z,9.60
2016-11-23T08:29:33.694Z,9.61
2016-11-23T08:30:35.272Z,9.66
2016-11-23T08:31:03.052Z,9.71
2016-11-23T08:31:25.937Z,9.74
2016-11-23T08:31:47.667Z,9.76
2016-11-23T08:32:14.165Z,9.80
2016-11-23T08:32:43.645Z,9.80
2016-11-23T08:33:10.151Z,9.85
2016-11-23T08:33:31.874Z,9.90
2016-11-23T08:33:53.614Z,9.92
2016-11-23T08:34:23.330Z,9.94
2016-11-23T08:34:56.194Z,9.98
2016-11-23T08:35:51.974Z,9.92
2016-11-23T08:36:55.623Z,9.88
2016-11-23T08:37:22.128Z,9.91
2016-11-23T08:37:46.845Z,9.92
2016-11-23T08:38:13.349Z,9.94
2016-11-23T08:38:35.079Z,9.95
2016-11-23T08:38:56.819Z,9.94
2016-11-23T08:39:50.815Z,9.88
2016-11-23T08:40:17.317Z,9.91
2016-11-23T08:40:48.597Z,9.92
2016-11-23T08:41:36.828Z,9.94
2016-11-23T08:42:03.331Z,9.98
2016-11-23T08:42:25.071Z,10.01
2016-11-23T08:42:46.826Z,10.05
2016-11-23T08:43:13.340Z,10.05
2016-11-23T08:44:44.181Z,10.04
2016-11-23T08:45:15.460Z,10.10
2016-11-23T08:45:41.953Z,10.09
2016-11-23T08:46:03.691Z,10.08
2016-11-23T08:46:30.272Z,10.09
2016-11-23T08:46:57.778Z,10.11
2016-11-23T08:47:22.208Z,10.08
2016-11-23T08:48:37.068Z,10.15
2016-11-23T08:49:34.824Z,10.18
2016-11-23T08:49:56.577Z,10.16
2016-11-23T08:50:18.308Z,10.19
2016-11-23T08:50:40.034Z,10.24
2016-11-23T08:51:01.784Z,10.27
2016-11-23T08:51:27.228Z,10.30
2016-11-23T08:51:56.591Z,10.29
2016-11-23T08:52:27.947Z,10.25
2016-11-23T08:55:30.940Z,10.34
2016-11-23T08:55:52.658Z,10.38
2016-11-23T08:56:19.178Z,10.42
2016-11-23T08:56:43.493Z,10.45
2016-11-23T08:57:15.762Z,10.48
2016-11-23T08:57:45.264Z,10.51
2016-11-23T08:58:11.787Z,10.48
2016-11-23T08:58:43.053Z,10.43
2016-11-23T08:59:07.334Z,10.45
2016-11-23T08:59:33.837Z,10.47
2016-11-23T09:00:06.608Z,10.42
2016-11-23T09:00:28.342Z,10.45
2016-11-23T09:00:50.068Z,10.46
2016-11-23T09:01:19.131Z,10.49
2016-11-23T09:01:43.430Z,10.48
2016-11-23T09:02:12.819Z,10.46
2016-11-23T09:02:42.163Z,10.45
2016-11-23T09:03:04.894Z,10.45
2016-11-23T09:04:00.666Z,10.48
2016-11-23T09:04:31.936Z,10.50
2016-11-23T09:04:53.685Z,10.50
2016-11-23T09:05:19.227Z,10.53
2016-11-23T09:05:45.737Z,10.55
2016-11-23T09:06:10.433Z,10.58
2016-11-23T09:06:36.740Z,10.57
2016-11-23T09:07:29.565Z,10.57
2016-11-23T09:08:00.830Z,10.58
2016-11-23T09:08:51.646Z,10.62
2016-11-23T09:09:40.894Z,10.57
2016-11-23T09:10:02.637Z,10.55
2016-11-23T09:10:29.181Z,10.55
2016-11-23T09:11:32.746Z,10.51
2016-11-23T09:11:57.100Z,10.49
2016-11-23T09:12:21.455Z,10.51
2016-11-23T09:12:50.875Z,10.57
2016-11-23T09:13:15.157Z,10.57
2016-11-23T09:13:36.892Z,10.58
2016-11-23T09:13:58.639Z,10.60
2016-11-23T09:14:20.413Z,10.60
2016-11-23T09:14:49.501Z,10.57
2016-11-23T09:15:43.512Z,10.59
2016-11-23T09:16:12.646Z,10.59
2016-11-23T09:16:46.544Z,10.58
2016-11-23T09:17:08.277Z,10.61
2016-11-23T09:17:42.248Z,10.62
2016-11-23T09:18:16.643Z,10.64
2016-11-23T09:18:45.969Z,10.58
2016-11-23T09:19:22.364Z,10.60
2016-11-23T09:20:15.870Z,10.65
2016-11-23T09:20:42.382Z,10.64
2016-11-23T09:22:20.773Z,10.67
2016-11-23T09:22:52.040Z,10.70
2016-11-23T09:23:49.925Z,10.75
2016-11-23T09:24:16.606Z,10.76
2016-11-23T09:24:40.879Z,10.78
2016-11-23T09:25:02.628Z,10.77
2016-11-23T09:25:26.363Z,10.76
2016-11-23T09:25:52.677Z,10.75
2016-11-23T09:26:51.115Z,10.79
2016-11-23T09:27:40.383Z,10.74
2016-11-23T09:28:02.138Z,10.74
2016-11-23T09:28:28.634Z,10.74
2016-11-23T09:28:51.360Z,10.75
2016-11-23T09:29:43.216Z,10.76
2016-11-23T09:30:04.935Z,10.78
2016-11-23T09:30:31.444Z,10.80
2016-11-23T09:30:53.278Z,10.77
2016-11-23T09:31:17.872Z,10.73
2016-11-23T09:31:39.607Z,10.71
2016-11-23T09:32:01.344Z,10.73
2016-11-23T09:32:25.853Z,10.73
2016-11-23T09:32:47.575Z,10.71
2016-11-23T09:33:09.299Z,10.71
2016-11-23T09:33:35.797Z,10.75
2016-11-23T09:34:36.648Z,10.74
2016-11-23T09:35:07.172Z,10.76
2016-11-23T09:35:36.404Z,10.78
2016-11-23T09:35:58.136Z,10.78
2016-11-23T09:36:19.876Z,10.74
2016-11-23T09:36:41.608Z,10.71
2016-11-23T09:37:06.183Z,10.70
2016-11-23T09:37:30.487Z,10.70
2016-11-23T09:37:57.154Z,10.68
2016-11-23T09:38:21.721Z,10.63
2016-11-23T09:38:46.072Z,10.61
2016-11-23T09:39:12.626Z,10.63
2016-11-23T09:39:34.361Z,10.65
2016-11-23T09:40:27.171Z,10.69
2016-11-23T09:40:51.817Z,10.74
2016-11-23T09:41:18.324Z,10.78
2016-11-23T09:41:47.742Z,10.78
2016-11-23T09:42:09.489Z,10.73
2016-11-23T09:42:31.231Z,10.71
2016-11-23T09:42:52.959Z,10.73
2016-11-23T09:43:45.996Z,10.80
2016-11-23T09:44:07.736Z,10.81
2016-11-23T09:44:29.497Z,10.85
2016-11-23T09:44:51.222Z,10.88
2016-11-23T09:45:17.737Z,10.86
2016-11-23T09:45:48.162Z,10.87
2016-11-23T09:46:14.669Z,10.87
2016-11-23T09:46:41.613Z,10.85
2016-11-23T09:47:32.254Z,10.84
2016-11-23T09:47:56.667Z,10.83
2016-11-23T09:48:21.985Z,10.83
2016-11-23T09:48:44.713Z,10.83
2016-11-23T09:49:42.491Z,10.84
2016-11-23T09:50:08.985Z,10.87
2016-11-23T09:50:30.716Z,10.88
2016-11-23T09:51:00.170Z,10.90
2016-11-23T09:51:26.694Z,10.92
2016-11-23T09:51:48.443Z,10.88
2016-11-23T09:52:10.205Z,10.87
2016-11-23T09:53:29.796Z,10.76
2016-11-23T09:53:59.117Z,10.78
2016-11-23T09:54:20.865Z,10.80
2016-11-23T09:54:47.368Z,10.81
2016-11-23T09:56:11.669Z,10.85
2016-11-23T09:56:39.165Z,10.88
2016-11-23T09:57:08.216Z,10.91
2016-11-23T09:57:30.007Z,10.91
2016-11-23T09:57:51.769Z,10.90
2016-11-23T09:58:15.497Z,10.89
2016-11-23T09:58:37.232Z,10.81
2016-11-23T09:58:59.076Z,10.80
2016-11-23T09:59:21.850Z,10.76
2016-11-23T09:59:54.026Z,10.76
2016-11-23T10:00:27.915Z,10.83
2016-11-23T10:01:01.851Z,10.88
2016-11-23T10:01:28.674Z,10.86
2016-11-23T10:01:54.043Z,10.91
2016-11-23T10:02:27.900Z,10.88
2016-11-23T10:02:57.271Z,10.92
2016-11-23T10:03:21.548Z,10.94
2016-11-23T10:03:52.919Z,10.87
2016-11-23T10:04:17.278Z,10.89
2016-11-23T10:04:51.226Z,10.90
2016-11-23T10:05:20.270Z,10.89
2016-11-23T10:06:13.275Z,10.84
2016-11-23T10:06:44.534Z,10.82
2016-11-23T10:08:15.082Z,10.93
2016-11-23T10:08:37.806Z,10.97
2016-11-23T10:09:33.770Z,10.95
2016-11-23T10:09:58.179Z,10.91
2016-11-23T10:10:19.907Z,10.90
2016-11-23T10:10:41.783Z,10.92
2016-11-23T10:11:08.288Z,10.93
2016-11-23T10:11:30.016Z,10.89
2016-11-23T10:11:51.758Z,10.92
2016-11-23T10:12:16.242Z,10.94
2016-11-23T10:12:40.565Z,10.95
2016-11-23T10:13:37.303Z,11.05
2016-11-23T10:13:59.035Z,11.05
2016-11-23T10:14:25.569Z,11.08
2016-11-23T10:14:52.071Z,11.06
2016-11-23T10:15:13.818Z,11.07
2016-11-23T10:15:35.549Z,11.11
2016-11-23T10:15:57.274Z,11.15
2016-11-23T10:16:23.769Z,11.20
2016-11-23T10:17:19.372Z,11.21
2016-11-23T10:18:10.291Z,11.21
2016-11-23T10:18:32.026Z,11.26
2016-11-23T10:19:51.523Z,11.38
2016-11-23T10:20:18.009Z,11.36
2016-11-23T10:20:39.762Z,11.40
2016-11-23T10:21:04.076Z,11.42
2016-11-23T10:21:28.424Z,11.47
2016-11-23T10:21:50.170Z,11.41
2016-11-23T10:22:24.114Z,11.43
2016-11-23T10:22:45.852Z,11.45
2016-11-23T10:23:44.711Z,11.51
2016-11-23T10:24:09.038Z,11.56
2016-11-23T10:24:30.783Z,11.58
2016-11-23T10:24:57.663Z,11.56
2016-11-23T10:25:26.741Z,11.54
2016-11-23T10:25:51.401Z,11.58
2016-11-23T10:26:13.147Z,11.67
2016-11-23T10:26:39.660Z,11.72
2016-11-23T10:27:01.409Z,11.79
2016-11-23T10:27:28.018Z,11.82
2016-11-23T10:27:49.804Z,11.89
2016-11-23T10:28:23.971Z,11.87
2016-11-23T10:28:45.714Z,11.89
2016-11-23T10:29:07.458Z,11.94
2016-11-23T10:29:29.186Z,11.91
2016-11-23T10:29:50.935Z,11.89
2016-11-23T10:31:05.487Z,11.98
2016-11-23T10:31:30.170Z,11.95
2016-11-23T10:31:56.687Z,11.97
2016-11-23T10:32:21.360Z,12.02
2016-11-23T10:32:43.092Z,11.95
2016-11-23T10:33:09.598Z,11.95
2016-11-23T10:33:31.337Z,11.86
2016-11-23T10:33:53.085Z,11.83
2016-11-23T10:34:24.368Z,11.79
2016-11-23T10:35:17.187Z,11.83
2016-11-23T10:35:38.932Z,11.84
2016-11-23T10:36:32.743Z,11.90
2016-11-23T10:38:02.553Z,11.90
2016-11-23T10:38:24.283Z,11.77
2016-11-23T10:38:51.597Z,11.71
2016-11-23T10:40:21.915Z,11.87
2016-11-23T10:41:14.921Z,11.83
2016-11-23T10:41:44.155Z,11.81
2016-11-23T10:42:08.767Z,11.80
2016-11-23T10:42:38.129Z,11.84
2016-11-23T10:43:02.493Z,11.82
2016-11-23T10:43:24.256Z,11.78
2016-11-23T10:44:12.500Z,11.77
2016-11-23T10:44:34.236Z,11.78
2016-11-23T10:44:56.972Z,11.82
2016-11-23T10:45:18.717Z,11.86
2016-11-23T10:45:43.262Z,11.79
2016-11-23T10:46:34.466Z,11.77
2016-11-23T10:47:03.882Z,11.80
2016-11-23T10:47:25.629Z,11.87
2016-11-23T10:47:49.973Z,11.87
2016-11-23T10:48:17.457Z,11.77
2016-11-23T10:48:39.198Z,11.69
2016-11-23T10:49:00.949Z,11.64
2016-11-23T10:49:29.904Z,11.68
2016-11-23T10:49:58.223Z,11.75
2016-11-23T10:50:20.956Z,11.78
2016-11-23T10:50:42.898Z,11.75
2016-11-23T10:51:04.624Z,11.77
2016-11-23T10:51:31.155Z,11.80
2016-11-23T10:52:36.437Z,11.72
2016-11-23T10:53:00.766Z,11.75
2016-11-23T10:53:27.115Z,11.75
2016-11-23T10:53:51.605Z,11.76
2016-11-23T10:54:52.876Z,11.78
2016-11-23T10:59:32.092Z,11.96
2016-11-23T11:00:20.342Z,11.99
2016-11-23T11:00:49.807Z,12.02
2016-11-23T11:01:23.701Z,11.96
2016-11-23T11:01:46.435Z,11.97
2016-11-23T11:02:08.165Z,12.02
2016-11-23T11:02:34.670Z,12.08
2016-11-23T11:02:57.393Z,12.12
2016-11-23T11:03:23.890Z,12.13
2016-11-23T11:03:45.626Z,12.03
2016-11-23T11:04:07.358Z,12.00
2016-11-23T11:04:33.848Z,12.00
2016-11-23T11:06:02.902Z,11.88
2016-11-23T11:06:29.213Z,11.99
2016-11-23T11:07:52.573Z,12.07
2016-11-23T11:08:19.093Z,12.17
2016-11-23T11:08:46.700Z,12.19
2016-11-23T11:09:18.598Z,12.13
2016-11-23T11:09:50.458Z,12.04
2016-11-23T11:10:21.594Z,12.00
2016-11-23T11:12:43.636Z,11.93
2016-11-23T11:13:09.068Z,11.93
2016-11-23T11:13:37.929Z,11.87
2016-11-23T11:14:04.428Z,11.94
2016-11-23T11:14:29.118Z,11.95
2016-11-23T11:14:50.878Z,11.94
2016-11-23T11:15:17.785Z,11.98
2016-11-23T11:15:44.612Z,11.95
2016-11-23T11:16:06.436Z,11.91
2016-11-23T11:16:37.805Z,11.91
2016-11-23T11:17:09.070Z,11.93
2016-11-23T11:18:26.763Z,11.97
2016-11-23T11:19:35.065Z,11.95
2016-11-23T11:19:56.813Z,12.00
2016-11-23T11:21:34.046Z,11.92
2016-11-23T11:21:55.763Z,11.88
2016-11-23T11:22:24.896Z,11.88
2016-11-23T11:22:51.416Z,11.84
2016-11-23T11:23:13.177Z,11.90
2016-11-23T11:23:42.257Z,11.92
2016-11-23T11:24:13.540Z,11.95
2016-11-23T11:24:40.071Z,11.95
2016-11-23T11:26:02.079Z,12.05
2016-11-23T11:26:28.581Z,12.06
2016-11-23T11:26:54.888Z,12.08
2016-11-23T11:27:21.714Z,12.13
2016-11-23T11:28:15.360Z,12.10
2016-11-23T11:28:39.656Z,12.12
2016-11-23T11:29:01.411Z,12.14
2016-11-23T11:29:23.211Z,12.16
2016-11-23T11:29:49.745Z,12.18
2016-11-23T11:30:11.559Z,12.20
2016-11-23T11:30:41.396Z,12.24
2016-11-23T11:31:07.707Z,12.19
2016-11-23T11:33:10.523Z,12.13
2016-11-23T11:33:36.248Z,12.14
2016-11-23T11:34:00.602Z,12.21
2016-11-23T11:34:29.431Z,12.20
2016-11-23T11:34:53.779Z,12.20
2016-11-23T11:35:15.686Z,12.20
2016-11-23T11:35:37.423Z,12.24
2016-11-23T11:36:02.261Z,12.22
2016-11-23T11:36:26.662Z,12.22
2016-11-23T11:36:48.406Z,12.23
2016-11-23T11:37:12.746Z,12.23
2016-11-23T11:37:40.073Z,12.21
2016-11-23T11:38:09.418Z,12.15
2016-11-23T11:38:38.491Z,12.14
2016-11-23T11:39:38.563Z,12.07
2016-11-23T11:40:00.343Z,12.04
2016-11-23T11:40:26.832Z,12.03
2016-11-23T11:40:49.590Z,12.04
2016-11-23T11:41:13.882Z,12.04
2016-11-23T11:41:40.384Z,12.05
2016-11-23T11:42:06.882Z,12.04
2016-11-23T11:42:31.436Z,12.04
2016-11-23T11:42:53.192Z,12.07
2016-11-23T11:43:17.581Z,12.05
2016-11-23T11:43:44.076Z,12.05
2016-11-23T11:44:06.830Z,12.10
2016-11-23T11:44:29.573Z,12.06
2016-11-23T11:44:58.996Z,12.03
2016-11-23T11:45:48.228Z,12.00
2016-11-23T11:46:37.483Z,12.01
2016-11-23T11:47:01.265Z,11.98
2016-11-23T11:47:24.024Z,12.00
2016-11-23T11:47:48.367Z,12.03
2016-11-23T11:48:12.249Z,12.05
2016-11-23T11:49:05.157Z,12.06
2016-11-23T11:49:32.649Z,12.06
2016-11-23T11:49:54.413Z,12.07
2016-11-23T11:50:16.162Z,12.07
2016-11-23T11:50:37.900Z,12.08
2016-11-23T11:51:04.397Z,12.11
2016-11-23T11:51:28.116Z,12.07
2016-11-23T11:51:54.421Z,12.11
2016-11-23T11:52:20.922Z,12.14
2016-11-23T11:52:46.661Z,12.08
2016-11-23T11:53:08.450Z,12.08
2016-11-23T11:53:34.956Z,12.11
2016-11-23T11:53:56.700Z,12.10
2016-11-23T11:54:52.511Z,12.16
2016-11-23T11:55:14.381Z,12.20
2016-11-23T11:55:40.894Z,12.25
2016-11-23T11:56:16.592Z,12.18
2016-11-23T11:56:39.017Z,12.17
2016-11-23T11:57:00.796Z,12.18
2016-11-23T11:58:05.330Z,12.21
2016-11-23T11:58:27.064Z,12.16
2016-11-23T11:58:48.793Z,12.11
2016-11-23T11:59:12.533Z,12.18
2016-11-23T11:59:35.295Z,12.18
2016-11-23T11:59:58.090Z,12.19
2016-11-23T12:00:51.616Z,12.25
2016-11-23T12:01:13.348Z,12.26
2016-11-23T12:01:35.116Z,12.24
2016-11-23T12:02:00.607Z,12.21
2016-11-23T12:02:30.980Z,12.18
2016-11-23T12:02:52.715Z,12.21
2016-11-23T12:03:19.223Z,12.20
2016-11-23T12:03:48.538Z,12.20
2016-11-23T12:04:17.566Z,12.26
2016-11-23T12:04:44.057Z,12.29
2016-11-23T12:05:15.631Z,12.23
2016-11-23T12:05:39.942Z,12.18
2016-11-23T12:06:01.672Z,12.13
2016-11-23T12:06:35.692Z,12.13
2016-11-23T12:08:05.510Z,12.11
2016-11-23T12:08:34.682Z,12.11
2016-11-23T12:08:59.515Z,12.10
2016-11-23T12:09:21.254Z,12.10
2016-11-23T12:12:43.104Z,12.10
2016-11-23T12:13:04.840Z,12.04
2016-11-23T12:13:29.311Z,12.05
2016-11-23T12:13:51.044Z,12.05
2016-11-23T12:14:15.437Z,12.04
2016-11-23T12:14:40.761Z,12.05
2016-11-23T12:15:32.132Z,12.05
2016-11-23T12:16:01.339Z,12.08
2016-11-23T12:16:30.690Z,12.09
2016-11-23T12:16:58.008Z,12.13
2016-11-23T12:17:51.781Z,12.08
2016-11-23T12:18:21.144Z,12.07
2016-11-23T12:19:10.375Z,12.15
2016-11-23T12:19:39.655Z,12.14
2016-11-23T12:20:16.602Z,12.14
2016-11-23T12:21:52.690Z,12.08
2016-11-23T12:22:21.567Z,12.11
2016-11-23T12:22:43.354Z,12.07
2016-11-23T12:23:39.098Z,12.10
2016-11-23T12:24:05.899Z,12.16
2016-11-23T12:24:32.644Z,12.18
2016-11-23T12:25:25.259Z,12.21
2016-11-23T12:25:46.997Z,12.22
2016-11-23T12:26:44.753Z,12.32
2016-11-23T12:27:09.407Z,12.30
2016-11-23T12:27:33.755Z,12.31
2016-11-23T12:27:58.056Z,12.30
2016-11-23T12:28:24.582Z,12.32
2016-11-23T12:28:58.857Z,12.35
2016-11-23T12:29:20.597Z,12.40
2016-11-23T12:29:42.333Z,12.47
2016-11-23T12:30:33.343Z,12.54
2016-11-23T12:31:02.592Z,12.57
2016-11-23T12:31:58.504Z,12.74
2016-11-23T12:32:21.224Z,12.66
2016-11-23T12:32:43.001Z,12.72
2016-11-23T12:33:16.874Z,12.86
2016-11-23T12:34:39.873Z,12.67
2016-11-23T12:35:06.789Z,12.60
2016-11-23T12:35:36.161Z,12.65
2016-11-23T12:36:05.176Z,12.66
2016-11-23T12:36:31.687Z,12.66
2016-11-23T12:36:56.212Z,12.70
2016-11-23T12:38:21.484Z,12.59
2016-11-23T12:38:46.159Z,12.60
2016-11-23T12:39:39.161Z,12.70
2016-11-23T12:40:00.891Z,12.78
2016-11-23T12:40:31.976Z,12.77
2016-11-23T12:40:58.479Z,12.82